Time;durP1;ratioP1;P1;durP2;ratioP2;P2;SDS_P1;SDS_P2;PMS_P1;PMS_P2;Temp;Humidity;BMP_temperature;BMP_pressure;BME280_temperature;BME280_humidity;BME280_pressure;Samples;Min_cycle;Max_cycle;Signal;HPM_P1;HPM_P2
2023/12/31 00:01:50;;;;;;;;;;;;;;;;;;5121943;27;19977;-81
2023/12/31 00:04:17;;;;;;;;;;;;;;;;;;5102371;27;19923;-83
2023/12/31 00:06:43;;;;;;;;;;;;;;;;;;5121689;27;19952;-81
2023/12/31 00:09:09;;;;;;;;;;;;;;;;;;5117741;27;19967;-83
2023/12/31 00:11:36;;;;;;;;;;;;;;;;;;5105346;27;19924;-82
2023/12/31 00:14:02;;;;;;;;;;;;;;;;;;5101442;27;19928;-83
2023/12/31 00:16:29;;;;;;;;;;;;;;;;;;5120691;27;19934;-80
2023/12/31 00:18:55;;;;;;;;;;;;;;;;;;5117430;27;19998;-82
2023/12/31 00:21:21;;;;;;;;;;;;;;;;;;5113567;27;19968;-81
2023/12/31 00:23:48;;;;;;;;;;;;;;;;;;5105791;28;19924;-83
2023/12/31 00:26:14;;;;;;;;;;;;;;;;;;5099265;28;19935;-83
2023/12/31 00:28:42;;;;;;;;;;;;;;;;;;5099580;27;20464;-83
2023/12/31 00:31:08;;;;;;;;;;;;;;;;;;5120026;27;19930;-82
2023/12/31 00:33:36;;;;;;;;;;;;;;;;;;5098720;27;20380;-81
2023/12/31 00:36:04;;;;;;;;;;;;;;;;;;5122101;27;19931;-82
2023/12/31 00:38:30;;;;;;;;;;;;;;;;;;5103876;28;19932;-82
2023/12/31 00:40:57;;;;;;;;;;;;;;;;;;5098488;28;20280;-84
2023/12/31 00:43:24;;;;;;;;;;;;;;;;;;5099795;28;20052;-83
2023/12/31 00:45:50;;;;;;;;;;;;;;;;;;5099722;28;19928;-83
2023/12/31 00:48:17;;;;;;;;;;;;;;;;;;5083612;28;19923;-82
2023/12/31 00:50:43;;;;;;;;;;;;;;;;;;5107452;27;19946;-84
2023/12/31 00:53:12;;;;;;;;;;;;;;;;;;5096940;28;19997;-82
2023/12/31 00:55:38;;;;;;;;;;;;;;;;;;5106715;28;20292;-84
2023/12/31 00:58:07;;;;;;;;;;;;;;;;;;5100909;28;19928;-81
2023/12/31 01:00:33;;;;;;;;;;;;;;;;;;5124482;28;20312;-80
2023/12/31 01:03:00;;;;;;;;;;;;;;;;;;5098681;28;20364;-82
2023/12/31 01:05:26;;;;;;;;;;;;;;;;;;5102077;27;19959;-84
2023/12/31 01:07:53;;;;;;;;;;;;;;;;;;5122720;27;20036;-82
2023/12/31 01:10:19;;;;;;;;;;;;;;;;;;5123326;27;19988;-83
2023/12/31 01:12:47;;;;;;;;;;;;;;;;;;5086486;28;19972;-82
2023/12/31 01:15:13;;;;;;;;;;;;;;;;;;5106639;27;19968;-82
2023/12/31 01:17:39;;;;;;;;;;;;;;;;;;5122380;27;19924;-81
2023/12/31 01:20:07;;;;;;;;;;;;;;;;;;5104668;27;20026;-82
2023/12/31 01:22:34;;;;;;;;;;;;;;;;;;5105538;27;19935;-82
2023/12/31 01:25:01;;;;;;;;;;;;;;;;;;5094371;27;19953;-83
2023/12/31 01:27:27;;;;;;;;;;;;;;;;;;5125786;27;19983;-84
2023/12/31 01:29:54;;;;;;;;;;;;;;;;;;5106486;27;20793;-83
2023/12/31 01:32:20;;;;;;;;;;;;;;;;;;5109123;27;19923;-81
2023/12/31 01:34:47;;;;;;;;;;;;;;;;;;5092258;27;20014;-81
2023/12/31 01:37:13;;;;;;;;;;;;;;;;;;5090257;27;19928;-82
2023/12/31 01:39:40;;;;;;;;;;;;;;;;;;5095823;27;19924;-82
2023/12/31 01:42:07;;;;;;;;;;;;;;;;;;5106947;27;19923;-82
2023/12/31 01:44:33;;;;;;;;;;;;;;;;;;5102193;28;19984;-81
2023/12/31 01:47:00;;;;;;;;;;;;;;;;;;5111000;27;20137;-82
2023/12/31 01:49:30;;;;;;;;;;;;;;;;;;5103375;27;20376;-81
2023/12/31 01:51:56;;;;;;;;;;;;;;;;;;5118724;27;20014;-82
2023/12/31 01:54:22;;;;;;;;;;;;;;;;;;5103377;27;19950;-81
2023/12/31 01:56:49;;;;;;;;;;;;;;;;;;5101803;27;20022;-82
2023/12/31 01:59:15;;;;;;;;;;;;;;;;;;5121876;27;19927;-81
2023/12/31 02:01:42;;;;;;;;;;;;;;;;;;5098025;28;19936;-83
2023/12/31 02:04:08;;;;;;;;;;;;;;;;;;5105720;28;19924;-83
2023/12/31 02:06:35;;;;;;;;;;;;;;;;;;5096782;27;20019;-83
2023/12/31 02:09:01;;;;;;;;;;;;;;;;;;5117137;27;19931;-83
2023/12/31 02:11:28;;;;;;;;;;;;;;;;;;5101200;28;19931;-83
2023/12/31 02:13:54;;;;;;;;;;;;;;;;;;5105856;27;19927;-83
2023/12/31 02:16:21;;;;;;;;;;;;;;;;;;5081691;28;19975;-81
2023/12/31 02:18:48;;;;;;;;;;;;;;;;;;5098924;27;20128;-82
2023/12/31 02:21:14;;;;;;;;;;;;;;;;;;5119394;27;20002;-83
2023/12/31 02:23:41;;;;;;;;;;;;;;;;;;5106242;27;19924;-85
2023/12/31 02:26:08;;;;;;;;;;;;;;;;;;5119318;27;19924;-82
2023/12/31 02:28:34;;;;;;;;;;;;;;;;;;5106577;28;19934;-82
2023/12/31 02:31:01;;;;;;;;;;;;;;;;;;5102737;27;19946;-83
2023/12/31 02:33:27;;;;;;;;;;;;;;;;;;5100754;28;20524;-82
2023/12/31 02:35:53;;;;;;;;;;;;;;;;;;5085716;27;19924;-82
2023/12/31 02:38:20;;;;;;;;;;;;;;;;;;5104897;28;19923;-82
2023/12/31 02:40:46;;;;;;;;;;;;;;;;;;5098972;28;20426;-83
2023/12/31 02:43:13;;;;;;;;;;;;;;;;;;5102247;27;20285;-83
2023/12/31 02:45:39;;;;;;;;;;;;;;;;;;5103141;27;19924;-83
2023/12/31 02:48:06;;;;;;;;;;;;;;;;;;5090854;27;19969;-81
2023/12/31 02:50:33;;;;;;;;;;;;;;;;;;5090927;27;19932;-82
2023/12/31 02:52:59;;;;;;;;;;;;;;;;;;5105071;27;19924;-79
2023/12/31 02:55:26;;;;;;;;;;;;;;;;;;5102333;27;20023;-81
2023/12/31 02:57:52;;;;;;;;;;;;;;;;;;5120992;27;19939;-80
2023/12/31 03:00:19;;;;;;;;;;;;;;;;;;5100705;27;19945;-81
2023/12/31 03:02:45;;;;;;;;;;;;;;;;;;5101988;27;19924;-82
2023/12/31 03:05:12;;;;;;;;;;;;;;;;;;5120898;27;20006;-80
2023/12/31 03:07:38;;;;;;;;;;;;;;;;;;5087328;27;19928;-81
2023/12/31 03:10:05;;;;;;;;;;;;;;;;;;5106591;27;19924;-81
2023/12/31 03:12:32;;;;;;;;;;;;;;;;;;5084146;28;19923;-80
2023/12/31 03:14:58;;;;;;;;;;;;;;;;;;5103669;27;20018;-81
2023/12/31 03:17:25;;;;;;;;;;;;;;;;;;5123484;27;19927;-81
2023/12/31 03:19:51;;;;;;;;;;;;;;;;;;5098205;28;20019;-81
2023/12/31 03:22:18;;;;;;;;;;;;;;;;;;5120005;27;19923;-81
2023/12/31 03:24:55;;;;;;;;;;;;;;;;;;5101757;27;20308;-82
2023/12/31 03:27:21;;;;;;;;;;;;;;;;;;5121394;27;19949;-82
2023/12/31 03:29:49;;;;;;;;;;;;;;;;;;5125894;27;19934;-80
2023/12/31 03:32:15;;;;;;;;;;;;;;;;;;5098157;28;19924;-81
2023/12/31 03:34:44;;;;;;;;;;;;;;;;;;5119001;27;20391;-80
2023/12/31 03:37:11;;;;;;;;;;;;;;;;;;5098855;28;19924;-81
2023/12/31 03:39:37;;;;;;;;;;;;;;;;;;5095564;28;19997;-80
2023/12/31 03:42:04;;;;;;;;;;;;;;;;;;5120679;27;19930;-79
2023/12/31 03:44:30;;;;;;;;;;;;;;;;;;5100820;28;19932;-81
2023/12/31 03:46:57;;;;;;;;;;;;;;;;;;5096968;28;19993;-80
2023/12/31 03:49:23;;;;;;;;;;;;;;;;;;5088272;27;19928;-81
2023/12/31 03:51:49;;;;;;;;;;;;;;;;;;5106256;27;19930;-81
2023/12/31 03:54:16;;;;;;;;;;;;;;;;;;5097612;27;19973;-81
2023/12/31 03:56:42;;;;;;;;;;;;;;;;;;5084929;28;19935;-80
2023/12/31 03:59:09;;;;;;;;;;;;;;;;;;5087671;27;20309;-79
2023/12/31 04:01:35;;;;;;;;;;;;;;;;;;5101393;28;19935;-81
2023/12/31 04:04:02;;;;;;;;;;;;;;;;;;5122922;27;19924;-83
2023/12/31 04:06:29;;;;;;;;;;;;;;;;;;5098941;28;19935;-82
2023/12/31 04:08:55;;;;;;;;;;;;;;;;;;5103787;27;20026;-81
2023/12/31 04:11:21;;;;;;;;;;;;;;;;;;5117113;27;20008;-80
2023/12/31 04:13:48;;;;;;;;;;;;;;;;;;5103586;27;19946;-82
2023/12/31 04:16:14;;;;;;;;;;;;;;;;;;5101765;27;19923;-81
2023/12/31 04:18:41;;;;;;;;;;;;;;;;;;5101235;28;19972;-80
2023/12/31 04:21:07;;;;;;;;;;;;;;;;;;5086178;28;19923;-80
2023/12/31 04:23:33;;;;;;;;;;;;;;;;;;5101407;28;19927;-82
2023/12/31 04:26:04;;;;;;;;;;;;;;;;;;5099027;27;19984;-82
2023/12/31 04:28:30;;;;;;;;;;;;;;;;;;5101193;28;19928;-82
2023/12/31 04:30:57;;;;;;;;;;;;;;;;;;5106866;27;19963;-81
2023/12/31 04:33:24;;;;;;;;;;;;;;;;;;5123259;27;20404;-79
2023/12/31 04:35:50;;;;;;;;;;;;;;;;;;5082725;28;19928;-81
2023/12/31 04:38:17;;;;;;;;;;;;;;;;;;5117475;27;19946;-81
2023/12/31 04:40:43;;;;;;;;;;;;;;;;;;5099872;28;19959;-80
2023/12/31 04:43:10;;;;;;;;;;;;;;;;;;5123137;27;19958;-80
2023/12/31 04:45:36;;;;;;;;;;;;;;;;;;5119530;27;19924;-80
2023/12/31 04:48:02;;;;;;;;;;;;;;;;;;5096952;28;20071;-82
2023/12/31 04:50:29;;;;;;;;;;;;;;;;;;5100251;28;19946;-79
2023/12/31 04:52:55;;;;;;;;;;;;;;;;;;5119418;27;20022;-81
2023/12/31 04:55:22;;;;;;;;;;;;;;;;;;5102468;28;19924;-82
2023/12/31 04:57:49;;;;;;;;;;;;;;;;;;5093853;28;19924;-80
2023/12/31 05:00:16;;;;;;;;;;;;;;;;;;5102600;28;19966;-80
2023/12/31 05:02:42;;;;;;;;;;;;;;;;;;5103245;28;20009;-82
2023/12/31 05:05:09;;;;;;;;;;;;;;;;;;5115206;28;19924;-80
2023/12/31 05:07:35;;;;;;;;;;;;;;;;;;5115789;28;19928;-80
2023/12/31 05:10:02;;;;;;;;;;;;;;;;;;5100203;28;19984;-81
2023/12/31 05:12:28;;;;;;;;;;;;;;;;;;5099328;28;19963;-81
2023/12/31 05:14:54;;;;;;;;;;;;;;;;;;5103861;28;19949;-80
2023/12/31 05:17:21;;;;;;;;;;;;;;;;;;5099152;28;20411;-80
2023/12/31 05:19:48;;;;;;;;;;;;;;;;;;5116746;28;19945;-82
2023/12/31 05:22:14;;;;;;;;;;;;;;;;;;5098060;28;20320;-82
2023/12/31 05:24:41;;;;;;;;;;;;;;;;;;5120113;28;20392;-81
2023/12/31 05:27:07;;;;;;;;;;;;;;;;;;5121698;28;20395;-80
2023/12/31 05:29:33;;;;;;;;;;;;;;;;;;5096218;28;20399;-80
2023/12/31 05:32:00;;;;;;;;;;;;;;;;;;5101487;28;20383;-80
2023/12/31 05:34:26;;;;;;;;;;;;;;;;;;5118399;28;19931;-82
2023/12/31 05:36:52;;;;;;;;;;;;;;;;;;5104069;28;19935;-78
2023/12/31 05:39:22;;;;;;;;;;;;;;;;;;5098067;28;20368;-81
2023/12/31 05:41:48;;;;;;;;;;;;;;;;;;5092616;28;19974;-80
2023/12/31 05:44:14;;;;;;;;;;;;;;;;;;5124792;28;20006;-81
2023/12/31 05:46:41;;;;;;;;;;;;;;;;;;5122040;28;20383;-81
2023/12/31 05:49:08;;;;;;;;;;;;;;;;;;5113644;28;20342;-81
2023/12/31 05:51:34;;;;;;;;;;;;;;;;;;5117716;27;19923;-79
2023/12/31 05:54:01;;;;;;;;;;;;;;;;;;5106905;28;20456;-80
2023/12/31 05:56:27;;;;;;;;;;;;;;;;;;5119718;27;19969;-80
2023/12/31 05:58:53;;;;;;;;;;;;;;;;;;5104306;27;19964;-81
2023/12/31 06:01:20;;;;;;;;;;;;;;;;;;5122166;27;20018;-81
2023/12/31 06:03:46;;;;;;;;;;;;;;;;;;5126363;27;19923;-79
2023/12/31 06:06:13;;;;;;;;;;;;;;;;;;5105801;28;20300;-80
2023/12/31 06:08:39;;;;;;;;;;;;;;;;;;5104478;28;20376;-80
2023/12/31 06:11:06;;;;;;;;;;;;;;;;;;5121568;27;20444;-81
2023/12/31 06:13:32;;;;;;;;;;;;;;;;;;5106216;27;19976;-80
2023/12/31 06:15:59;;;;;;;;;;;;;;;;;;5120941;27;19927;-82
2023/12/31 06:18:25;;;;;;;;;;;;;;;;;;5098773;28;20353;-82
2023/12/31 06:20:52;;;;;;;;;;;;;;;;;;5103810;28;19969;-83
2023/12/31 06:23:18;;;;;;;;;;;;;;;;;;5123560;27;20464;-81
2023/12/31 06:25:46;;;;;;;;;;;;;;;;;;5100268;28;19932;-82
2023/12/31 06:28:12;;;;;;;;;;;;;;;;;;5107288;28;19946;-80
2023/12/31 06:30:39;;;;;;;;;;;;;;;;;;5119773;27;19928;-80
2023/12/31 06:33:06;;;;;;;;;;;;;;;;;;5100989;27;19933;-80
2023/12/31 06:35:35;;;;;;;;;;;;;;;;;;5119333;27;20410;-81
2023/12/31 06:38:01;;;;;;;;;;;;;;;;;;5124675;27;20746;-80
2023/12/31 06:40:27;;;;;;;;;;;;;;;;;;5103768;27;20014;-80
2023/12/31 06:42:54;;;;;;;;;;;;;;;;;;5103821;27;19931;-79
2023/12/31 06:45:20;;;;;;;;;;;;;;;;;;5083405;27;19931;-80
2023/12/31 06:47:47;;;;;;;;;;;;;;;;;;5100470;28;20384;-79
2023/12/31 06:50:13;;;;;;;;;;;;;;;;;;5098354;28;19949;-80
2023/12/31 06:52:39;;;;;;;;;;;;;;;;;;5115814;27;19954;-81
2023/12/31 06:55:08;;;;;;;;;;;;;;;;;;5126430;27;20008;-80
2023/12/31 06:57:34;;;;;;;;;;;;;;;;;;5102504;28;19971;-81
2023/12/31 07:00:01;;;;;;;;;;;;;;;;;;5102634;27;19970;-80
2023/12/31 07:02:27;;;;;;;;;;;;;;;;;;5098013;28;20428;-81
2023/12/31 07:04:54;;;;;;;;;;;;;;;;;;5100432;28;19989;-81
2023/12/31 07:07:20;;;;;;;;;;;;;;;;;;5124496;27;20326;-80
2023/12/31 07:09:47;;;;;;;;;;;;;;;;;;5123120;27;19927;-79
2023/12/31 07:12:13;;;;;;;;;;;;;;;;;;5102720;27;20342;-82
2023/12/31 07:14:39;;;;;;;;;;;;;;;;;;5102713;27;19923;-80
2023/12/31 07:17:06;;;;;;;;;;;;;;;;;;5121273;27;20302;-81
2023/12/31 07:19:32;;;;;;;;;;;;;;;;;;5102451;27;19939;-80
2023/12/31 07:21:59;;;;;;;;;;;;;;;;;;5120632;27;19923;-80
2023/12/31 07:24:25;;;;;;;;;;;;;;;;;;5122123;27;19928;-79
2023/12/31 07:26:52;;;;;;;;;;;;;;;;;;5122652;27;19924;-81
2023/12/31 07:29:18;;;;;;;;;;;;;;;;;;5106070;28;19924;-82
2023/12/31 07:31:47;;;;;;;;;;;;;;;;;;5125047;27;20479;-81
2023/12/31 07:34:15;;;;;;;;;;;;;;;;;;5104488;27;19923;-81
2023/12/31 07:36:42;;;;;;;;;;;;;;;;;;5121994;27;19923;-82
2023/12/31 07:39:08;;;;;;;;;;;;;;;;;;5123981;27;19924;-83
2023/12/31 07:41:35;;;;;;;;;;;;;;;;;;5104201;28;19932;-81
2023/12/31 07:44:01;;;;;;;;;;;;;;;;;;5094284;28;20057;-81
2023/12/31 07:46:28;;;;;;;;;;;;;;;;;;5098370;28;19924;-81
2023/12/31 07:48:56;;;;;;;;;;;;;;;;;;5095590;28;19935;-83
2023/12/31 07:51:23;;;;;;;;;;;;;;;;;;5120687;27;19923;-80
2023/12/31 07:53:51;;;;;;;;;;;;;;;;;;5099683;28;19924;-80
2023/12/31 07:56:17;;;;;;;;;;;;;;;;;;5121932;27;19923;-82
2023/12/31 07:58:44;;;;;;;;;;;;;;;;;;5099592;27;20376;-80
2023/12/31 08:01:11;;;;;;;;;;;;;;;;;;5123929;27;20430;-80
2023/12/31 08:03:38;;;;;;;;;;;;;;;;;;5117126;27;19923;-81
2023/12/31 08:06:05;;;;;;;;;;;;;;;;;;5083868;27;19931;-80
2023/12/31 08:08:31;;;;;;;;;;;;;;;;;;5103759;27;19948;-82
2023/12/31 08:11:01;;;;;;;;;;;;;;;;;;5104428;27;20311;-79
2023/12/31 08:13:29;;;;;;;;;;;;;;;;;;5083207;27;20007;-79
2023/12/31 08:15:56;;;;;;;;;;;;;;;;;;5116845;27;19935;-81
2023/12/31 08:18:22;;;;;;;;;;;;;;;;;;5100118;27;19961;-83
2023/12/31 08:20:49;;;;;;;;;;;;;;;;;;5082402;28;20058;-81
2023/12/31 08:23:15;;;;;;;;;;;;;;;;;;5099026;27;20010;-81
2023/12/31 08:25:42;;;;;;;;;;;;;;;;;;5114920;27;19949;-79
2023/12/31 08:28:08;;;;;;;;;;;;;;;;;;5123489;27;19931;-78
2023/12/31 08:30:34;;;;;;;;;;;;;;;;;;5099035;28;19927;-80
2023/12/31 08:33:01;;;;;;;;;;;;;;;;;;5114031;28;19934;-80
2023/12/31 08:35:28;;;;;;;;;;;;;;;;;;5086913;28;20019;-80
2023/12/31 08:37:54;;;;;;;;;;;;;;;;;;5099400;28;19954;-81
2023/12/31 08:40:21;;;;;;;;;;;;;;;;;;5116206;27;19971;-79
2023/12/31 08:42:48;;;;;;;;;;;;;;;;;;5119955;27;19946;-82
2023/12/31 08:45:14;;;;;;;;;;;;;;;;;;5081910;28;19924;-84
2023/12/31 08:47:41;;;;;;;;;;;;;;;;;;5104323;27;19974;-83
2023/12/31 08:50:11;;;;;;;;;;;;;;;;;;5119191;27;20007;-83
2023/12/31 08:52:38;;;;;;;;;;;;;;;;;;5099744;28;19928;-82
2023/12/31 08:55:04;;;;;;;;;;;;;;;;;;5102050;28;19931;-81
2023/12/31 08:57:30;;;;;;;;;;;;;;;;;;5115538;27;19924;-80
2023/12/31 08:59:57;;;;;;;;;;;;;;;;;;5106004;28;20026;-81
2023/12/31 09:02:24;;;;;;;;;;;;;;;;;;5097452;28;19930;-82
2023/12/31 09:04:50;;;;;;;;;;;;;;;;;;5121273;28;19927;-80
2023/12/31 09:07:16;;;;;;;;;;;;;;;;;;5085004;28;20288;-81
2023/12/31 09:09:43;;;;;;;;;;;;;;;;;;5102472;28;19972;-80
2023/12/31 09:12:09;;;;;;;;;;;;;;;;;;5101587;28;19924;-81
2023/12/31 09:14:36;;;;;;;;;;;;;;;;;;5101854;28;19946;-81
2023/12/31 09:17:02;;;;;;;;;;;;;;;;;;5103900;28;20017;-81
2023/12/31 09:19:30;;;;;;;;;;;;;;;;;;5099072;28;20042;-82
2023/12/31 09:21:56;;;;;;;;;;;;;;;;;;5125564;28;19931;-82
2023/12/31 09:24:23;;;;;;;;;;;;;;;;;;5116818;28;20010;-81
2023/12/31 09:26:49;;;;;;;;;;;;;;;;;;5120254;27;20347;-80
2023/12/31 09:29:17;;;;;;;;;;;;;;;;;;5123799;27;20371;-81
2023/12/31 09:31:43;;;;;;;;;;;;;;;;;;5123320;27;19927;-84
2023/12/31 09:34:10;;;;;;;;;;;;;;;;;;5103281;27;20325;-82
2023/12/31 09:36:36;;;;;;;;;;;;;;;;;;5104684;27;19975;-81
2023/12/31 09:39:02;;;;;;;;;;;;;;;;;;5101622;27;19930;-82
2023/12/31 09:41:29;;;;;;;;;;;;;;;;;;5103666;28;20387;-80
2023/12/31 09:43:55;;;;;;;;;;;;;;;;;;5098098;27;19928;-81
2023/12/31 09:46:22;;;;;;;;;;;;;;;;;;5106803;27;19930;-81
2023/12/31 09:48:48;;;;;;;;;;;;;;;;;;5110910;27;19934;-81
2023/12/31 09:51:15;;;;;;;;;;;;;;;;;;5104047;28;20352;-82
2023/12/31 09:53:41;;;;;;;;;;;;;;;;;;5104916;27;19962;-82
2023/12/31 09:56:07;;;;;;;;;;;;;;;;;;5106287;27;20006;-81
2023/12/31 09:58:34;;;;;;;;;;;;;;;;;;5125929;27;19927;-79
2023/12/31 10:01:00;;;;;;;;;;;;;;;;;;5106631;27;19927;-77
2023/12/31 10:03:27;;;;;;;;;;;;;;;;;;5101621;27;19931;-80
2023/12/31 10:05:53;;;;;;;;;;;;;;;;;;5121495;27;19947;-82
2023/12/31 10:08:20;;;;;;;;;;;;;;;;;;5088879;28;19928;-80
2023/12/31 10:10:46;;;;;;;;;;;;;;;;;;5101261;27;19934;-80
2023/12/31 10:13:12;;;;;;;;;;;;;;;;;;5101022;27;19991;-80
2023/12/31 10:15:39;;;;;;;;;;;;;;;;;;5106000;27;19924;-80
2023/12/31 10:18:06;;;;;;;;;;;;;;;;;;5106364;27;19972;-80
2023/12/31 10:20:33;;;;;;;;;;;;;;;;;;5100218;27;20386;-83
2023/12/31 10:23:01;;;;;;;;;;;;;;;;;;5103986;27;20427;-83
2023/12/31 10:25:28;;;;;;;;;;;;;;;;;;5099170;27;19955;-80
2023/12/31 10:27:55;;;;;;;;;;;;;;;;;;5085110;28;19974;-79
2023/12/31 10:30:22;;;;;;;;;;;;;;;;;;5123500;27;19931;-80
2023/12/31 10:32:49;;;;;;;;;;;;;;;;;;5123119;27;19924;-81
2023/12/31 10:35:15;;;;;;;;;;;;;;;;;;5101295;28;19923;-79
2023/12/31 10:37:42;;;;;;;;;;;;;;;;;;5122592;27;19923;-82
2023/12/31 10:40:09;;;;;;;;;;;;;;;;;;5107252;27;19930;-81
2023/12/31 10:42:36;;;;;;;;;;;;;;;;;;5108660;27;20387;-80
2023/12/31 10:45:02;;;;;;;;;;;;;;;;;;5102089;27;19931;-82
2023/12/31 10:47:29;;;;;;;;;;;;;;;;;;5090455;27;20438;-79
2023/12/31 10:49:55;;;;;;;;;;;;;;;;;;5122787;27;20383;-79
2023/12/31 10:52:24;;;;;;;;;;;;;;;;;;5121399;27;19947;-80
2023/12/31 10:54:51;;;;;;;;;;;;;;;;;;5101834;27;20383;-80
2023/12/31 10:57:20;;;;;;;;;;;;;;;;;;5081767;27;20086;-78
2023/12/31 10:59:46;;;;;;;;;;;;;;;;;;5104242;27;19959;-84
2023/12/31 11:02:14;;;;;;;;;;;;;;;;;;5104668;27;19988;-82
2023/12/31 11:04:40;;;;;;;;;;;;;;;;;;5106102;27;19927;-80
2023/12/31 11:07:07;;;;;;;;;;;;;;;;;;5085022;27;19928;-81
2023/12/31 11:09:33;;;;;;;;;;;;;;;;;;5108259;27;20482;-80
2023/12/31 11:12:00;;;;;;;;;;;;;;;;;;5125627;27;20272;-81
2023/12/31 11:14:29;;;;;;;;;;;;;;;;;;5104535;27;19928;-84
2023/12/31 11:16:59;;;;;;;;;;;;;;;;;;5105243;27;19978;-84
2023/12/31 11:19:25;;;;;;;;;;;;;;;;;;5121290;27;19931;-80
2023/12/31 11:21:51;;;;;;;;;;;;;;;;;;5099545;28;19973;-82
2023/12/31 11:24:18;;;;;;;;;;;;;;;;;;5104501;27;19923;-83
2023/12/31 11:26:45;;;;;;;;;;;;;;;;;;5117422;27;20400;-81
2023/12/31 11:29:11;;;;;;;;;;;;;;;;;;5105846;27;19923;-81
2023/12/31 11:31:38;;;;;;;;;;;;;;;;;;5118818;27;20030;-81
2023/12/31 11:34:04;;;;;;;;;;;;;;;;;;5086759;27;19928;-77
2023/12/31 11:36:31;;;;;;;;;;;;;;;;;;5105999;27;19976;-81
2023/12/31 11:38:57;;;;;;;;;;;;;;;;;;5096944;28;20023;-84
2023/12/31 11:41:24;;;;;;;;;;;;;;;;;;5103736;27;20101;-81
2023/12/31 11:43:51;;;;;;;;;;;;;;;;;;5117557;27;20388;-81
2023/12/31 11:46:18;;;;;;;;;;;;;;;;;;5121715;27;19976;-81
2023/12/31 11:48:44;;;;;;;;;;;;;;;;;;5115843;27;20014;-81
2023/12/31 11:51:11;;;;;;;;;;;;;;;;;;5119813;27;19931;-81
2023/12/31 11:53:37;;;;;;;;;;;;;;;;;;5122964;27;20342;-79
2023/12/31 11:56:03;;;;;;;;;;;;;;;;;;5120336;27;20022;-81
2023/12/31 11:58:30;;;;;;;;;;;;;;;;;;5098978;27;19973;-83
2023/12/31 12:00:56;;;;;;;;;;;;;;;;;;5077786;27;19934;-81
2023/12/31 12:03:23;;;;;;;;;;;;;;;;;;5100076;27;20353;-84
2023/12/31 12:05:52;;;;;;;;;;;;;;;;;;5099530;28;20000;-83
2023/12/31 12:08:19;;;;;;;;;;;;;;;;;;5100342;27;19928;-84
2023/12/31 12:10:45;;;;;;;;;;;;;;;;;;5117999;27;19927;-83
2023/12/31 12:13:12;;;;;;;;;;;;;;;;;;5124196;27;19981;-86
2023/12/31 12:15:39;;;;;;;;;;;;;;;;;;5098001;28;19924;-84
2023/12/31 12:18:05;;;;;;;;;;;;;;;;;;5119511;27;20026;-83
2023/12/31 12:20:32;;;;;;;;;;;;;;;;;;5098626;27;19932;-83
2023/12/31 12:23:02;;;;;;;;;;;;;;;;;;5098700;27;19923;-81
2023/12/31 12:25:29;;;;;;;;;;;;;;;;;;5092368;28;20105;-82
2023/12/31 12:27:55;;;;;;;;;;;;;;;;;;5113964;28;19927;-83
2023/12/31 12:30:22;;;;;;;;;;;;;;;;;;5113597;27;20010;-83
2023/12/31 12:32:48;;;;;;;;;;;;;;;;;;5097833;27;19928;-83
2023/12/31 12:35:15;;;;;;;;;;;;;;;;;;5098787;28;19959;-81
2023/12/31 12:37:42;;;;;;;;;;;;;;;;;;5116918;27;20551;-83
2023/12/31 12:40:09;;;;;;;;;;;;;;;;;;5116091;27;20027;-80
2023/12/31 12:42:36;;;;;;;;;;;;;;;;;;5095561;28;20151;-79
2023/12/31 12:45:03;;;;;;;;;;;;;;;;;;5097819;28;20006;-82
2023/12/31 12:47:31;;;;;;;;;;;;;;;;;;5102124;27;19930;-80
2023/12/31 12:49:57;;;;;;;;;;;;;;;;;;5098272;28;20341;-83
2023/12/31 12:52:24;;;;;;;;;;;;;;;;;;5119045;27;19931;-83
2023/12/31 12:54:50;;;;;;;;;;;;;;;;;;5097505;27;20327;-76
2023/12/31 12:57:16;;;;;;;;;;;;;;;;;;5097156;28;20018;-83
2023/12/31 12:59:43;;;;;;;;;;;;;;;;;;5116795;28;20022;-82
2023/12/31 13:02:09;;;;;;;;;;;;;;;;;;5084419;28;19923;-80
2023/12/31 13:04:36;;;;;;;;;;;;;;;;;;5101918;28;19977;-82
2023/12/31 13:07:02;;;;;;;;;;;;;;;;;;5084917;28;20384;-82
2023/12/31 13:09:28;;;;;;;;;;;;;;;;;;5120882;28;19924;-80
2023/12/31 13:11:55;;;;;;;;;;;;;;;;;;5100876;28;19980;-84
2023/12/31 13:14:23;;;;;;;;;;;;;;;;;;5093570;28;19923;-83
2023/12/31 13:16:49;;;;;;;;;;;;;;;;;;5121510;28;19927;-83
2023/12/31 13:19:18;;;;;;;;;;;;;;;;;;5116399;28;20404;-84
2023/12/31 13:21:45;;;;;;;;;;;;;;;;;;5098972;28;19928;-82
2023/12/31 13:24:11;;;;;;;;;;;;;;;;;;5102582;28;19927;-80
2023/12/31 13:26:38;;;;;;;;;;;;;;;;;;5115915;28;19923;-82
2023/12/31 13:29:04;;;;;;;;;;;;;;;;;;5101770;28;19927;-80
2023/12/31 13:31:31;;;;;;;;;;;;;;;;;;5085551;28;19943;-78
2023/12/31 13:33:57;;;;;;;;;;;;;;;;;;5080066;28;19927;-79
2023/12/31 13:36:24;;;;;;;;;;;;;;;;;;5096622;28;20372;-81
2023/12/31 13:38:50;;;;;;;;;;;;;;;;;;5095480;28;20308;-81
2023/12/31 13:41:16;;;;;;;;;;;;;;;;;;5117102;28;19935;-78
2023/12/31 13:43:45;;;;;;;;;;;;;;;;;;5115375;28;19935;-79
2023/12/31 13:46:12;;;;;;;;;;;;;;;;;;5098076;28;19934;-80
2023/12/31 13:48:38;;;;;;;;;;;;;;;;;;5097225;28;19959;-85
2023/12/31 13:51:04;;;;;;;;;;;;;;;;;;5120428;28;19976;-84
2023/12/31 13:53:31;;;;;;;;;;;;;;;;;;5096482;28;19927;-84
2023/12/31 13:55:57;;;;;;;;;;;;;;;;;;5115490;28;19927;-84
2023/12/31 13:58:24;;;;;;;;;;;;;;;;;;5098818;28;19927;-80
2023/12/31 14:00:51;;;;;;;;;;;;;;;;;;5118540;28;20391;-80
2023/12/31 14:03:18;;;;;;;;;;;;;;;;;;5100036;28;19924;-79
2023/12/31 14:05:45;;;;;;;;;;;;;;;;;;5114157;28;20346;-80
2023/12/31 14:08:11;;;;;;;;;;;;;;;;;;5099169;28;19928;-77
2023/12/31 14:10:38;;;;;;;;;;;;;;;;;;5083144;28;19962;-80
2023/12/31 14:13:04;;;;;;;;;;;;;;;;;;5096180;28;19931;-78
2023/12/31 14:15:32;;;;;;;;;;;;;;;;;;5104899;27;19932;-80
2023/12/31 14:17:58;;;;;;;;;;;;;;;;;;5098505;28;20437;-81
2023/12/31 14:20:25;;;;;;;;;;;;;;;;;;5102327;27;19927;-80
2023/12/31 14:22:51;;;;;;;;;;;;;;;;;;5103039;28;20446;-80
2023/12/31 14:25:18;;;;;;;;;;;;;;;;;;5105369;28;19924;-79
2023/12/31 14:27:44;;;;;;;;;;;;;;;;;;5081847;28;19924;-77
2023/12/31 14:30:10;;;;;;;;;;;;;;;;;;5100458;27;20026;-79
2023/12/31 14:32:37;;;;;;;;;;;;;;;;;;5096204;28;20443;-80
2023/12/31 14:35:04;;;;;;;;;;;;;;;;;;5120007;27;20669;-82
2023/12/31 14:37:30;;;;;;;;;;;;;;;;;;5101642;27;19931;-80
2023/12/31 14:39:57;;;;;;;;;;;;;;;;;;5103115;28;19931;-80
2023/12/31 14:42:23;;;;;;;;;;;;;;;;;;5115700;27;19928;-78
2023/12/31 14:44:50;;;;;;;;;;;;;;;;;;5084375;27;19924;-81
2023/12/31 14:47:17;;;;;;;;;;;;;;;;;;5103714;28;19928;-79
2023/12/31 14:49:43;;;;;;;;;;;;;;;;;;5101972;27;19928;-80
2023/12/31 14:52:10;;;;;;;;;;;;;;;;;;5116059;27;19927;-79
2023/12/31 14:54:36;;;;;;;;;;;;;;;;;;5123092;27;19928;-79
2023/12/31 14:57:03;;;;;;;;;;;;;;;;;;5123073;27;20399;-82
2023/12/31 14:59:29;;;;;;;;;;;;;;;;;;5094115;28;19936;-80
2023/12/31 15:01:56;;;;;;;;;;;;;;;;;;5100329;27;20210;-80
2023/12/31 15:04:22;;;;;;;;;;;;;;;;;;5122996;27;19927;-81
2023/12/31 15:06:48;;;;;;;;;;;;;;;;;;5117180;27;19923;-79
2023/12/31 15:09:15;;;;;;;;;;;;;;;;;;5099224;28;20022;-79
2023/12/31 15:11:42;;;;;;;;;;;;;;;;;;5116999;27;20018;-80
2023/12/31 15:14:08;;;;;;;;;;;;;;;;;;5096874;27;19923;-80
2023/12/31 15:16:35;;;;;;;;;;;;;;;;;;5118353;27;19930;-80
2023/12/31 15:19:01;;;;;;;;;;;;;;;;;;5086226;27;19924;-80
2023/12/31 15:21:28;;;;;;;;;;;;;;;;;;5098970;28;19974;-80
2023/12/31 15:23:56;;;;;;;;;;;;;;;;;;5108459;28;19931;-79
2023/12/31 15:26:22;;;;;;;;;;;;;;;;;;5102584;28;19931;-80
2023/12/31 15:28:49;;;;;;;;;;;;;;;;;;5117085;27;20324;-82
2023/12/31 15:31:17;;;;;;;;;;;;;;;;;;5104172;27;19924;-88
2023/12/31 15:33:43;;;;;;;;;;;;;;;;;;5097712;28;19939;-86
2023/12/31 15:36:10;;;;;;;;;;;;;;;;;;5081109;28;20039;-86
2023/12/31 15:38:38;;;;;;;;;;;;;;;;;;5086581;27;20018;-86
2023/12/31 15:41:04;;;;;;;;;;;;;;;;;;5101926;27;19934;-86
2023/12/31 15:43:31;;;;;;;;;;;;;;;;;;5098396;28;19973;-85
2023/12/31 15:45:57;;;;;;;;;;;;;;;;;;5085877;27;20011;-86
2023/12/31 15:48:24;;;;;;;;;;;;;;;;;;5099641;28;19966;-86
2023/12/31 15:50:50;;;;;;;;;;;;;;;;;;5098401;27;19924;-86
2023/12/31 15:53:18;;;;;;;;;;;;;;;;;;5094082;27;19923;-87
2023/12/31 15:55:45;;;;;;;;;;;;;;;;;;5101049;28;20014;-86
2023/12/31 15:58:11;;;;;;;;;;;;;;;;;;5085238;27;19927;-86
2023/12/31 16:00:37;;;;;;;;;;;;;;;;;;5126323;27;19927;-84
2023/12/31 16:03:04;;;;;;;;;;;;;;;;;;5116000;27;20273;-87
2023/12/31 16:05:30;;;;;;;;;;;;;;;;;;5084282;28;20269;-86
2023/12/31 16:07:57;;;;;;;;;;;;;;;;;;5100567;28;19978;-85
2023/12/31 16:10:25;;;;;;;;;;;;;;;;;;5104424;27;19971;-85
2023/12/31 16:12:52;;;;;;;;;;;;;;;;;;5092196;28;20377;-87
2023/12/31 16:15:18;;;;;;;;;;;;;;;;;;5098212;27;20033;-85
2023/12/31 16:17:44;;;;;;;;;;;;;;;;;;5120363;27;20334;-85
2023/12/31 16:20:11;;;;;;;;;;;;;;;;;;5097535;28;20014;-85
2023/12/31 16:22:38;;;;;;;;;;;;;;;;;;5107591;27;20054;-86
2023/12/31 16:25:05;;;;;;;;;;;;;;;;;;5102376;27;19927;-85
2023/12/31 16:27:32;;;;;;;;;;;;;;;;;;5096304;28;19928;-86
2023/12/31 16:29:58;;;;;;;;;;;;;;;;;;5100189;27;19952;-86
2023/12/31 16:32:25;;;;;;;;;;;;;;;;;;5103237;28;19923;-84
2023/12/31 16:34:51;;;;;;;;;;;;;;;;;;5082703;28;19931;-87
2023/12/31 16:37:18;;;;;;;;;;;;;;;;;;5106092;27;19934;-86
2023/12/31 16:39:44;;;;;;;;;;;;;;;;;;5103946;28;19928;-88
2023/12/31 16:42:10;;;;;;;;;;;;;;;;;;5102242;28;19934;-86